Time;durP1;ratioP1;P1;durP2;ratioP2;P2;SDS_P1;SDS_P2;PMS_P1;PMS_P2;Temp;Humidity;BMP_temperature;BMP_pressure;BME280_temperature;BME280_humidity;BME280_pressure;Samples;Min_cycle;Max_cycle;Signal;HPM_P1;HPM_P2
2022/03/13 00:01:01;;;;;;;7.03;5.28;;;;;;;2.17;41.36;101211.56;6280716;22;20022;-87
2022/03/13 00:03:33;;;;;;;9.73;5.43;;;;;;;2.18;41.11;101208.13;6302914;22;20026;-87
2022/03/13 00:06:00;;;;;;;11.07;5.90;;;;;;;2.14;41.06;101207.19;6309282;22;20014;-89
2022/03/13 00:08:34;;;;;;;10.15;5.28;;;;;;;2.15;41.51;101206.31;6333393;22;20010;-88
2022/03/13 00:11:17;;;;;;;9.90;5.75;;;;;;;2.10;41.09;101205.28;6280844;22;20023;-88
2022/03/13 00:13:51;;;;;;;7.45;5.35;;;;;;;2.07;41.84;101207.78;6360556;22;20007;-86
2022/03/13 00:16:41;;;;;;;8.75;5.43;;;;;;;2.02;41.95;101214.47;6315629;22;20029;-88
2022/03/13 00:19:12;;;;;;;8.82;6.22;;;;;;;1.99;41.85;101217.84;6301070;22;20075;-86
2022/03/13 00:21:55;;;;;;;8.85;5.78;;;;;;;1.97;41.74;101212.63;6333589;22;20029;-87
2022/03/13 00:24:22;;;;;;;9.63;6.20;;;;;;;1.90;42.35;101209.78;6342265;22;20022;-89
2022/03/13 00:26:51;;;;;;;9.32;5.65;;;;;;;1.86;41.92;101208.78;6329549;22;20109;-89
2022/03/13 00:29:20;;;;;;;9.48;6.47;;;;;;;1.78;42.50;101194.72;6307718;22;20046;-88
2022/03/13 00:31:47;;;;;;;9.82;5.38;;;;;;;1.72;42.52;101202.25;6347092;22;20046;-87
2022/03/13 00:34:20;;;;;;;10.85;7.32;;;;;;;1.69;42.82;101202.13;6335515;22;20014;-89
2022/03/13 00:36:53;;;;;;;10.05;6.13;;;;;;;1.66;42.66;101213.22;6314369;22;20403;-87
2022/03/13 00:39:20;;;;;;;10.13;5.90;;;;;;;1.61;43.66;101200.16;6292080;22;20045;-88
2022/03/13 00:41:50;;;;;;;9.75;6.13;;;;;;;1.58;43.72;101209.50;6310658;22;20022;-88
2022/03/13 00:44:23;;;;;;;8.32;6.07;;;;;;;1.55;43.62;101212.84;6332502;22;20019;-87
2022/03/13 00:47:00;;;;;;;8.60;6.93;;;;;;;1.52;44.09;101194.66;6286049;22;20101;-87
2022/03/13 00:49:26;;;;;;;8.75;6.18;;;;;;;1.48;44.26;101200.53;6316437;22;20025;-88
2022/03/13 00:51:56;;;;;;;10.80;6.22;;;;;;;1.45;44.46;101203.00;6318921;22;20011;-90
2022/03/13 00:54:23;;;;;;;7.63;5.72;;;;;;;1.43;44.24;101209.78;6343686;22;20038;-88
2022/03/13 00:56:50;;;;;;;11.68;6.65;;;;;;;1.39;43.99;101202.78;6321845;22;20006;-89
2022/03/13 00:59:17;;;;;;;9.43;6.78;;;;;;;1.38;44.81;101207.03;6335963;22;20026;-89
2022/03/13 01:01:44;;;;;;;7.18;5.80;;;;;;;1.34;44.29;101202.59;6312120;22;20049;-90
2022/03/13 01:04:20;;;;;;;8.98;5.70;;;;;;;1.31;44.61;101202.47;6339481;22;20003;-86
2022/03/13 01:06:51;;;;;;;10.77;5.43;;;;;;;1.23;44.38;101202.19;6341643;22;20023;-87
2022/03/13 01:09:34;;;;;;;7.93;5.45;;;;;;;1.17;44.78;101206.25;6288849;22;20018;-86
2022/03/13 01:12:04;;;;;;;6.22;5.38;;;;;;;1.11;45.06;101206.91;6337465;22;20018;-87
2022/03/13 01:14:33;;;;;;;9.50;5.88;;;;;;;1.07;44.70;101199.84;6262487;22;20022;-86
2022/03/13 01:17:07;;;;;;;7.78;5.40;;;;;;;1.04;45.50;101202.31;6341563;22;20026;-88
2022/03/13 01:19:37;;;;;;;7.90;5.57;;;;;;;1.02;45.22;101201.34;6314041;22;20011;-87
2022/03/13 01:22:06;;;;;;;8.40;6.03;;;;;;;1.00;45.43;101198.72;6337767;22;20098;-89
2022/03/13 01:24:43;;;;;;;10.18;6.82;;;;;;;0.98;45.80;101201.25;6307063;22;20018;-87
2022/03/13 01:27:11;;;;;;;8.82;5.10;;;;;;;0.95;45.03;101198.56;6334638;22;20425;-87
2022/03/13 01:29:38;;;;;;;8.48;6.10;;;;;;;0.93;45.85;101191.59;6284556;22;20050;-87
2022/03/13 01:32:09;;;;;;;9.32;5.78;;;;;;;0.89;45.74;101189.72;6310268;22;20014;-88
2022/03/13 01:34:35;;;;;;;10.93;5.85;;;;;;;0.84;45.63;101180.91;6334460;22;20038;-87
2022/03/13 01:37:10;;;;;;;7.93;5.70;;;;;;;0.80;46.24;101182.50;6335085;22;20093;-88
2022/03/13 01:39:37;;;;;;;13.38;6.80;;;;;;;0.77;45.88;101184.94;6309051;22;20041;-88
2022/03/13 01:42:05;;;;;;;11.65;5.40;;;;;;;0.73;45.88;101180.47;6331853;22;20022;-87
2022/03/13 01:44:31;;;;;;;9.10;5.75;;;;;;;0.71;46.38;101188.16;6334737;22;20068;-88
2022/03/13 01:47:00;;;;;;;8.95;6.72;;;;;;;0.69;46.14;101183.75;6276596;22;20027;-88
2022/03/13 01:49:26;;;;;;;8.88;5.57;;;;;;;0.68;45.91;101184.56;6334422;22;20018;-88
2022/03/13 01:51:53;;;;;;;9.13;6.03;;;;;;;0.64;45.91;101184.47;6311740;22;20102;-87
2022/03/13 01:54:20;;;;;;;10.32;5.53;;;;;;;0.62;46.34;101183.50;6310627;22;20069;-88
2022/03/13 01:56:47;;;;;;;11.18;6.05;;;;;;;0.60;46.86;101179.09;6336303;22;20011;-86
2022/03/13 01:59:16;;;;;;;9.70;5.78;;;;;;;0.59;46.66;101178.22;6334165;22;20027;-88
2022/03/13 02:01:43;;;;;;;7.53;5.80;;;;;;;0.53;46.25;101170.25;6337490;22;20050;-88
2022/03/13 02:04:12;;;;;;;11.88;7.07;;;;;;;0.48;46.73;101164.94;6331406;22;20023;-86
2022/03/13 02:06:41;;;;;;;10.27;6.47;;;;;;;0.46;46.93;101168.25;6303856;22;20102;-88
2022/03/13 02:09:08;;;;;;;11.20;6.15;;;;;;;0.41;46.82;101162.91;6305119;22;20019;-88
2022/03/13 02:11:40;;;;;;;8.07;5.20;;;;;;;0.40;46.79;101165.44;6313057;22;20030;-88
2022/03/13 02:14:08;;;;;;;10.57;6.70;;;;;;;0.38;47.00;101160.22;6325794;22;20033;-90
2022/03/13 02:16:35;;;;;;;10.55;6.43;;;;;;;0.34;47.22;101153.19;6362288;22;20078;-89
2022/03/13 02:19:04;;;;;;;7.53;6.35;;;;;;;0.33;46.99;101154.00;6323680;22;20022;-87
2022/03/13 02:21:38;;;;;;;9.23;5.90;;;;;;;0.30;47.04;101147.03;6337070;22;20019;-87
2022/03/13 02:24:14;;;;;;;8.23;6.10;;;;;;;0.25;46.79;101145.06;6351189;22;20022;-89
2022/03/13 02:26:43;;;;;;;11.32;5.95;;;;;;;0.24;47.45;101151.06;6357578;22;20448;-87
2022/03/13 02:29:17;;;;;;;9.40;6.32;;;;;;;0.19;47.64;101143.13;6342241;22;20025;-86
2022/03/13 02:31:44;;;;;;;7.75;5.80;;;;;;;0.17;47.78;101147.34;6336476;22;20552;-87
2022/03/13 02:34:15;;;;;;;11.75;5.93;;;;;;;0.16;47.42;101148.16;6334686;22;20086;-87
2022/03/13 02:37:00;;;;;;;10.48;6.63;;;;;;;0.12;47.46;101134.28;6337408;22;20039;-86
2022/03/13 02:39:27;;;;;;;10.43;6.35;;;;;;;0.08;48.07;101127.25;6309008;22;20018;-87
2022/03/13 02:41:54;;;;;;;9.98;6.32;;;;;;;0.11;47.60;101134.22;6333674;22;20023;-87
2022/03/13 02:44:21;;;;;;;11.48;6.30;;;;;;;0.06;48.33;101133.16;6306571;22;20061;-87
2022/03/13 02:46:49;;;;;;;12.30;7.00;;;;;;;0.03;48.23;101139.06;6333422;22;20381;-87
2022/03/13 02:49:21;;;;;;;9.30;5.90;;;;;;;-0.01;48.45;101138.03;6331665;22;20019;-89
2022/03/13 02:51:52;;;;;;;11.38;7.00;;;;;;;-0.02;49.05;101136.25;6304185;22;20022;-87
2022/03/13 02:54:20;;;;;;;11.90;6.72;;;;;;;-0.08;48.66;101141.19;6326020;22;20015;-88
2022/03/13 02:56:47;;;;;;;14.25;6.18;;;;;;;-0.12;48.41;101143.53;6330430;22;20030;-87
2022/03/13 02:59:15;;;;;;;22.17;7.57;;;;;;;-0.14;48.84;101148.63;6281107;22;20018;-87
2022/03/13 03:01:43;;;;;;;9.50;5.85;;;;;;;-0.17;49.59;101144.25;6305713;22;20023;-87
2022/03/13 03:04:13;;;;;;;13.38;7.50;;;;;;;-0.23;49.27;101141.41;6301257;22;20161;-87
2022/03/13 03:06:50;;;;;;;8.43;5.18;;;;;;;-0.31;48.66;101132.47;6329397;22;20015;-87
2022/03/13 03:09:19;;;;;;;9.98;5.65;;;;;;;-0.35;49.33;101134.03;6352516;22;20440;-87
2022/03/13 03:11:46;;;;;;;8.13;5.88;;;;;;;-0.34;49.51;101143.50;6329563;22;20065;-88
2022/03/13 03:14:13;;;;;;;8.07;6.18;;;;;;;-0.37;49.73;101145.94;6329132;22;20015;-87
2022/03/13 03:16:40;;;;;;;9.55;6.38;;;;;;;-0.39;49.56;101147.56;6331302;22;20029;-88
2022/03/13 03:19:06;;;;;;;8.13;6.03;;;;;;;-0.37;49.98;101145.06;6331589;22;20121;-88
2022/03/13 03:21:33;;;;;;;8.38;6.47;;;;;;;-0.42;49.99;101138.84;6330526;22;20086;-87
2022/03/13 03:24:01;;;;;;;11.82;6.38;;;;;;;-0.48;50.44;101139.47;6327334;22;20275;-87
2022/03/13 03:26:27;;;;;;;18.55;6.30;;;;;;;-0.52;50.41;101143.59;6303776;22;20254;-88
2022/03/13 03:28:54;;;;;;;11.75;6.53;;;;;;;-0.53;50.57;101146.97;6336909;22;20023;-86
2022/03/13 03:31:21;;;;;;;9.38;6.03;;;;;;;-0.56;50.72;101148.50;6336086;22;20802;-86
2022/03/13 03:33:47;;;;;;;7.28;5.30;;;;;;;-0.58;50.59;101153.59;6305330;22;20400;-86
2022/03/13 03:36:17;;;;;;;14.07;7.20;;;;;;;-0.62;50.90;101146.56;6330271;22;20037;-87
2022/03/13 03:38:44;;;;;;;12.32;6.20;;;;;;;-0.62;51.50;101148.25;6332739;22;20066;-88
2022/03/13 03:41:11;;;;;;;10.90;5.80;;;;;;;-0.60;51.12;101147.53;6304186;22;20315;-87
2022/03/13 03:43:38;;;;;;;10.85;5.88;;;;;;;-0.61;51.29;101150.00;6303076;22;20015;-86
2022/03/13 03:46:07;;;;;;;16.77;6.35;;;;;;;-0.65;51.02;101153.25;6330598;22;20018;-88
2022/03/13 03:48:35;;;;;;;10.73;6.28;;;;;;;-0.67;51.44;101141.19;6283659;22;20015;-88
2022/03/13 03:51:01;;;;;;;10.32;6.10;;;;;;;-0.68;51.63;101143.72;6303662;22;20069;-88
2022/03/13 03:53:28;;;;;;;13.40;7.05;;;;;;;-0.70;51.71;101135.94;6302183;22;20025;-88
2022/03/13 03:55:57;;;;;;;12.10;6.75;;;;;;;-0.70;51.27;101146.22;6305704;22;20038;-87
2022/03/13 03:58:23;;;;;;;12.07;7.43;;;;;;;-0.72;51.23;101140.16;6333321;22;20034;-87
2022/03/13 04:00:50;;;;;;;11.63;7.70;;;;;;;-0.73;51.42;101143.53;6334560;22;20018;-89
2022/03/13 04:03:17;;;;;;;14.32;7.05;;;;;;;-0.76;51.28;101145.06;6327623;22;20027;-89
2022/03/13 04:05:44;;;;;;;11.55;7.43;;;;;;;-0.79;51.62;101139.81;6343224;22;20366;-87
2022/03/13 04:08:10;;;;;;;11.20;8.02;;;;;;;-0.80;51.72;101138.91;6334073;22;20146;-87
2022/03/13 04:10:37;;;;;;;13.95;6.93;;;;;;;-0.80;51.43;101136.31;6306656;22;20011;-88
2022/03/13 04:13:03;;;;;;;12.05;7.00;;;;;;;-0.80;51.49;101138.91;6332066;22;20015;-87
2022/03/13 04:15:30;;;;;;;17.30;7.88;;;;;;;-0.79;52.10;101139.81;6330232;22;20015;-87
2022/03/13 04:17:57;;;;;;;16.05;8.13;;;;;;;-0.83;51.59;101141.34;6329227;22;20027;-87
2022/03/13 04:20:24;;;;;;;14.80;7.28;;;;;;;-0.85;51.49;101138.72;6331610;22;20477;-87
2022/03/13 04:22:51;;;;;;;11.02;6.53;;;;;;;-0.86;52.02;101136.03;6348079;22;20013;-88
2022/03/13 04:25:18;;;;;;;13.27;7.10;;;;;;;-0.87;52.02;101131.75;6347891;22;20075;-86
2022/03/13 04:27:45;;;;;;;17.55;9.65;;;;;;;-0.87;51.98;101140.31;6319981;22;20307;-87
2022/03/13 04:30:13;;;;;;;13.25;7.20;;;;;;;-0.90;51.85;101134.16;6333559;22;20095;-88
2022/03/13 04:32:41;;;;;;;18.65;7.75;;;;;;;-0.95;52.18;101133.97;6303101;22;20010;-87
2022/03/13 04:35:09;;;;;;;11.50;6.70;;;;;;;-0.96;52.25;101129.63;6304105;22;20024;-87
2022/03/13 04:37:37;;;;;;;14.45;7.10;;;;;;;-0.98;52.52;101131.22;6279342;22;20046;-87
2022/03/13 04:40:04;;;;;;;12.63;6.95;;;;;;;-1.02;51.97;101130.22;6303008;22;20030;-87
2022/03/13 04:42:31;;;;;;;15.73;7.95;;;;;;;-1.05;52.19;101129.19;6329399;22;20614;-86
2022/03/13 04:44:59;;;;;;;12.27;7.10;;;;;;;-1.07;52.76;101123.09;6330030;22;20018;-86
2022/03/13 04:47:31;;;;;;;15.98;9.30;;;;;;;-1.07;52.39;101124.00;6331334;22;20069;-87
2022/03/13 04:49:58;;;;;;;11.05;7.25;;;;;;;-1.09;51.98;101120.47;6279521;22;20018;-87
2022/03/13 04:52:26;;;;;;;17.52;8.90;;;;;;;-1.07;52.60;101123.09;6303739;22;20532;-88
2022/03/13 04:54:52;;;;;;;10.77;7.88;;;;;;;-1.07;52.36;101121.44;6327579;22;20702;-87
2022/03/13 04:57:20;;;;;;;12.93;7.57;;;;;;;-1.06;52.39;101122.28;6328529;22;20080;-88
2022/03/13 04:59:47;;;;;;;13.15;6.20;;;;;;;-1.07;52.03;101128.25;6304295;22;20039;-86
2022/03/13 05:02:15;;;;;;;16.35;8.18;;;;;;;-1.09;52.56;101124.75;6329397;22;20025;-87
2022/03/13 05:04:43;;;;;;;16.85;7.32;;;;;;;-1.11;52.16;101123.78;6327203;22;20084;-87
2022/03/13 05:07:13;;;;;;;12.85;7.07;;;;;;;-1.12;52.81;101127.16;6330309;22;20030;-87
2022/03/13 05:09:40;;;;;;;12.93;6.78;;;;;;;-1.15;52.56;101122.75;6328446;22;20030;-86
2022/03/13 05:12:09;;;;;;;13.73;7.63;;;;;;;-1.12;52.80;101130.63;6328461;22;20113;-88
2022/03/13 05:14:37;;;;;;;14.05;7.20;;;;;;;-1.10;52.09;101130.69;6327614;22;20029;-87
2022/03/13 05:17:05;;;;;;;17.05;8.27;;;;;;;-1.11;52.64;101132.34;6330851;22;20524;-87
2022/03/13 05:19:32;;;;;;;19.55;7.80;;;;;;;-1.12;52.53;101132.28;6332328;22;20061;-88
2022/03/13 05:21:59;;;;;;;16.40;7.60;;;;;;;-1.12;52.32;101133.19;6328945;22;20018;-87
2022/03/13 05:24:27;;;;;;;14.27;7.32;;;;;;;-1.13;52.21;101136.56;6296488;22;20046;-88
2022/03/13 05:26:54;;;;;;;12.95;8.43;;;;;;;-1.13;52.24;101134.00;6329500;22;20023;-87
2022/03/13 05:29:20;;;;;;;15.60;7.25;;;;;;;-1.13;52.12;101135.66;6329366;22;20015;-87
2022/03/13 05:31:47;;;;;;;14.68;7.55;;;;;;;-1.15;52.42;101140.72;6307552;22;20029;-86
2022/03/13 05:34:17;;;;;;;13.60;7.43;;;;;;;-1.17;52.12;101134.66;6304282;22;20098;-88
2022/03/13 05:36:44;;;;;;;16.20;7.97;;;;;;;-1.17;52.20;101137.22;6331045;22;20805;-86
2022/03/13 05:39:11;;;;;;;11.25;7.63;;;;;;;-1.23;52.12;101132.66;6330034;22;20026;-87
2022/03/13 05:41:40;;;;;;;18.05;7.80;;;;;;;-1.23;52.40;101135.22;6303656;22;20106;-86
2022/03/13 05:44:13;;;;;;;13.52;7.50;;;;;;;-1.23;51.86;101137.81;6303948;22;20046;-87
2022/03/13 05:46:41;;;;;;;16.63;8.18;;;;;;;-1.28;52.25;101141.84;6330766;22;20015;-88
2022/03/13 05:49:09;;;;;;;16.23;9.00;;;;;;;-1.27;52.56;101147.88;6302631;22;20859;-88
2022/03/13 05:51:43;;;;;;;15.23;7.80;;;;;;;-1.29;52.21;101140.09;6307737;22;20083;-88
2022/03/13 05:54:11;;;;;;;11.60;7.35;;;;;;;-1.34;52.63;101139.88;6349039;22;20076;-86
2022/03/13 05:56:37;;;;;;;17.05;7.57;;;;;;;-1.36;52.68;101138.91;6312565;22;20014;-87
2022/03/13 05:59:04;;;;;;;13.55;8.35;;;;;;;-1.36;52.57;101135.47;6305055;22;20368;-87
2022/03/13 06:01:31;;;;;;;14.00;7.28;;;;;;;-1.40;52.63;101139.56;6304320;22;20014;-87
2022/03/13 06:03:59;;;;;;;14.50;7.38;;;;;;;-1.43;52.74;101138.56;6302133;22;20729;-87
2022/03/13 06:06:26;;;;;;;16.05;7.15;;;;;;;-1.45;52.79;101146.19;6303121;22;20030;-86
2022/03/13 06:08:53;;;;;;;17.77;8.30;;;;;;;-1.47;52.80;101145.25;6328689;22;20121;-87
2022/03/13 06:11:19;;;;;;;19.52;8.82;;;;;;;-1.46;53.01;101144.44;6300345;22;20019;-85
2022/03/13 06:13:46;;;;;;;15.90;7.40;;;;;;;-1.43;52.79;101146.28;6329135;22;20073;-88
2022/03/13 06:16:13;;;;;;;18.40;7.32;;;;;;;-1.40;52.61;101152.41;6332260;22;20015;-86
2022/03/13 06:18:41;;;;;;;13.73;7.30;;;;;;;-1.38;52.63;101145.69;6332684;22;20102;-87
2022/03/13 06:21:08;;;;;;;11.98;7.30;;;;;;;-1.37;52.81;101143.97;6334347;22;20027;-87
2022/03/13 06:23:35;;;;;;;13.75;7.38;;;;;;;-1.33;52.73;101138.19;6307454;22;20015;-89
2022/03/13 06:26:04;;;;;;;10.60;7.45;;;;;;;-1.29;52.35;101147.81;6323153;22;20011;-88
2022/03/13 06:28:34;;;;;;;12.30;7.18;;;;;;;-1.23;52.07;101142.06;6349599;22;20017;-87
2022/03/13 06:31:00;;;;;;;11.60;6.28;;;;;;;-1.18;51.85;101153.44;6334768;22;20101;-87
2022/03/13 06:33:28;;;;;;;10.30;6.25;;;;;;;-1.15;51.33;101153.56;6304166;22;20023;-86
2022/03/13 06:35:55;;;;;;;15.20;8.43;;;;;;;-1.12;51.47;101157.97;6305562;22;20027;-88
2022/03/13 06:38:22;;;;;;;12.23;6.80;;;;;;;-1.09;51.62;101161.56;6331974;22;20030;-88
2022/03/13 06:40:51;;;;;;;9.88;5.80;;;;;;;-1.05;51.76;101165.19;6305489;22;20114;-87
2022/03/13 06:43:18;;;;;;;14.88;7.13;;;;;;;-0.98;51.13;101162.06;6331519;22;20038;-88
2022/03/13 06:45:45;;;;;;;14.18;6.88;;;;;;;-0.91;51.05;101163.22;6329656;22;20039;-86
2022/03/13 06:48:15;;;;;;;15.25;7.45;;;;;;;-0.82;50.78;101162.78;6333983;22;20019;-85
2022/03/13 06:50:42;;;;;;;12.32;7.35;;;;;;;-0.73;50.16;101163.19;6324429;22;20018;-87
2022/03/13 06:53:10;;;;;;;14.88;8.52;;;;;;;-0.60;49.88;101169.75;6303114;22;20126;-87
2022/03/13 06:55:37;;;;;;;11.23;6.80;;;;;;;-0.21;49.48;101162.94;6279657;22;20023;-86
2022/03/13 06:58:06;;;;;;;11.43;6.95;;;;;;;0.36;48.50;101164.41;6307165;22;20014;-88
2022/03/13 07:00:33;;;;;;;11.82;6.80;;;;;;;0.95;47.21;101156.41;6330369;22;20041;-87
2022/03/13 07:03:00;;;;;;;11.02;7.03;;;;;;;1.47;46.00;101158.38;6332171;22;20102;-87
2022/03/13 07:05:31;;;;;;;12.18;6.68;;;;;;;1.85;44.91;101160.53;6330104;22;20106;-87
2022/03/13 07:07:58;;;;;;;9.50;6.72;;;;;;;2.16;43.68;101159.00;6306682;22;20014;-86
2022/03/13 07:10:24;;;;;;;11.88;7.28;;;;;;;2.47;43.00;101157.44;6330633;22;20106;-88
2022/03/13 07:12:55;;;;;;;13.05;7.03;;;;;;;2.77;43.16;101154.94;6300664;22;20022;-87
2022/03/13 07:15:24;;;;;;;13.32;6.70;;;;;;;3.20;42.71;101160.53;6303498;22;20058;-88
2022/03/13 07:17:52;;;;;;;12.88;7.05;;;;;;;3.53;41.89;101167.50;6279215;22;20026;-88
2022/03/13 07:20:18;;;;;;;12.95;8.57;;;;;;;3.77;40.62;101166.47;6309424;22;20431;-88
2022/03/13 07:22:46;;;;;;;12.25;7.45;;;;;;;3.92;40.12;101171.16;6330145;22;20771;-87
2022/03/13 07:25:18;;;;;;;13.00;7.30;;;;;;;3.94;40.45;101175.53;6330936;22;20018;-86
2022/03/13 07:27:50;;;;;;;18.25;7.57;;;;;;;4.01;38.86;101167.94;6313923;22;20045;-89
2022/03/13 07:30:17;;;;;;;11.82;7.53;;;;;;;4.17;39.70;101174.38;6309243;22;20109;-87
2022/03/13 07:32:49;;;;;;;11.10;6.45;;;;;;;4.42;38.88;101168.09;6334844;22;20045;-87
2022/03/13 07:35:19;;;;;;;9.15;6.95;;;;;;;4.77;38.53;101162.88;6279784;22;20564;-88
2022/03/13 07:37:47;;;;;;;11.32;7.90;;;;;;;5.19;37.89;101158.59;6331626;22;20113;-88
2022/03/13 07:40:14;;;;;;;16.42;8.10;;;;;;;5.65;37.94;101158.69;6306745;22;20669;-88
2022/03/13 07:42:45;;;;;;;10.43;8.10;;;;;;;5.76;36.60;101154.53;6333247;22;20027;-88
2022/03/13 07:45:12;;;;;;;8.00;7.10;;;;;;;5.82;35.65;101153.81;6324361;22;20064;-91
2022/03/13 07:47:39;;;;;;;13.15;7.63;;;;;;;5.91;35.94;101162.63;6353008;22;20074;-88
2022/03/13 07:50:07;;;;;;;12.00;7.15;;;;;;;6.25;35.75;101158.06;6309486;22;20019;-90
2022/03/13 07:52:34;;;;;;;12.90;7.20;;;;;;;6.58;34.80;101166.38;6332202;22;20022;-88
2022/03/13 07:55:02;;;;;;;9.80;6.28;;;;;;;6.78;34.04;101166.72;6304456;22;20018;-87
2022/03/13 07:57:29;;;;;;;9.20;6.60;;;;;;;6.76;33.41;101161.47;6336485;22;20442;-90
2022/03/13 07:59:55;;;;;;;8.23;6.65;;;;;;;7.11;34.08;101162.81;6313811;22;20045;-87
2022/03/13 08:05:28;;;;;;;6.90;6.10;;;;;;;7.66;32.84;101157.41;6336313;22;20018;-89
2022/03/13 08:08:17;;;;;;;9.98;6.75;;;;;;;6.98;33.50;101161.78;6313226;22;20023;-89
2022/03/13 08:10:44;;;;;;;9.88;7.38;;;;;;;6.20;34.54;101159.69;6281251;22;20039;-87
2022/03/13 08:13:11;;;;;;;13.43;7.55;;;;;;;5.48;35.54;101164.41;6280912;22;20022;-87
2022/03/13 08:15:39;;;;;;;10.43;6.57;;;;;;;4.97;35.91;101160.75;6336166;22;20015;-88
2022/03/13 08:18:06;;;;;;;9.48;7.13;;;;;;;4.57;36.87;101165.88;6336685;22;20080;-86
2022/03/13 08:20:42;;;;;;;10.07;6.60;;;;;;;4.30;37.80;101166.97;6329947;22;20023;-88
2022/03/13 08:23:09;;;;;;;9.82;6.50;;;;;;;4.16;37.53;101165.75;6331944;22;20047;-87
2022/03/13 08:25:36;;;;;;;13.10;7.68;;;;;;;4.11;37.84;101164.75;6333699;22;20017;-89
2022/03/13 08:28:05;;;;;;;9.70;7.40;;;;;;;4.16;38.15;101162.25;6326419;22;20045;-87
2022/03/13 08:30:33;;;;;;;11.25;7.20;;;;;;;4.28;37.72;101166.03;6351979;22;20014;-86
2022/03/13 08:32:59;;;;;;;10.52;6.93;;;;;;;4.86;36.64;101163.06;6337600;22;20015;-86
2022/03/13 08:35:29;;;;;;;12.23;6.85;;;;;;;6.04;35.37;101155.09;6331368;22;20088;-88
2022/03/13 08:37:58;;;;;;;10.00;7.32;;;;;;;7.31;33.04;101147.44;6333831;22;20112;-87
2022/03/13 08:40:29;;;;;;;11.27;6.30;;;;;;;8.13;31.16;101152.69;6303468;22;20015;-85
2022/03/13 08:43:00;;;;;;;11.63;7.03;;;;;;;9.10;30.80;101145.59;6254813;22;20015;-86
2022/03/13 08:45:27;;;;;;;9.60;5.95;;;;;;;9.67;29.42;101143.16;6273881;22;20578;-87
2022/03/13 08:47:55;;;;;;;7.35;6.50;;;;;;;10.22;29.32;101134.53;6303896;22;20090;-86
2022/03/13 08:50:24;;;;;;;10.15;6.95;;;;;;;11.06;28.66;101134.44;6312787;22;20040;-90
2022/03/13 08:58:31;;;;;;;9.30;6.30;;;;;;;12.55;26.03;101137.94;6311567;22;20090;-87
2022/03/13 09:01:00;;;;;;;7.53;6.22;;;;;;;12.66;25.80;101140.44;6284737;22;20735;-88
2022/03/13 09:06:13;;;;;;;8.52;6.75;;;;;;;12.49;26.25;101147.59;6291598;22;20019;-87
2022/03/13 09:11:29;;;;;;;9.23;7.05;;;;;;;11.13;27.74;101140.53;6222367;23;20073;-86
2022/03/13 09:13:59;;;;;;;9.85;6.85;;;;;;;10.36;27.92;101128.44;6277465;22;20312;-89
2022/03/13 09:16:32;;;;;;;9.50;6.85;;;;;;;9.49;28.46;101137.88;6288855;22;20015;-88
2022/03/13 09:21:56;;;;;;;8.60;6.75;;;;;;;7.83;30.39;101138.50;6271111;22;20023;-85
2022/03/13 09:24:23;;;;;;;12.63;7.25;;;;;;;7.36;31.32;101142.31;6274678;22;20029;-89
2022/03/13 09:26:50;;;;;;;9.32;6.57;;;;;;;7.10;31.54;101146.34;6277428;22;20095;-88
2022/03/13 09:29:17;;;;;;;12.07;6.35;;;;;;;6.92;31.61;101148.66;6252402;22;20026;-87
2022/03/13 09:31:44;;;;;;;9.80;7.28;;;;;;;6.73;32.22;101139.75;6279318;22;20023;-87
2022/03/13 09:34:12;;;;;;;10.32;7.40;;;;;;;6.66;32.30;101145.69;6313338;22;20023;-91
2022/03/13 09:36:42;;;;;;;10.43;6.80;;;;;;;6.59;32.54;101149.94;6290895;22;20003;-92
2022/03/13 09:39:10;;;;;;;9.07;5.90;;;;;;;6.61;32.24;101148.25;6266119;22;20019;-89
2022/03/13 09:41:39;;;;;;;8.23;6.57;;;;;;;6.67;32.76;101143.13;6298401;22;20414;-88
2022/03/13 09:44:10;;;;;;;7.30;6.60;;;;;;;6.77;32.43;101146.75;6339607;22;20645;-87
2022/03/13 09:46:42;;;;;;;8.80;6.03;;;;;;;6.80;32.68;101146.78;6317353;22;20034;-91
2022/03/13 09:49:16;;;;;;;13.93;7.63;;;;;;;6.84;32.30;101142.50;6316475;22;20014;-87
2022/03/13 09:51:47;;;;;;;9.55;6.05;;;;;;;6.90;32.14;101145.19;6321192;22;20025;-88
2022/03/13 09:54:14;;;;;;;10.70;5.82;;;;;;;6.99;31.96;101145.31;6343364;22;20431;-86
2022/03/13 09:56:46;;;;;;;8.57;6.45;;;;;;;7.70;31.58;101146.16;6343360;22;20022;-89
2022/03/13 09:59:13;;;;;;;9.15;6.10;;;;;;;9.18;30.27;101138.63;6343261;22;20091;-87
2022/03/13 10:01:40;;;;;;;10.50;7.28;;;;;;;11.09;27.70;101130.06;6342923;22;20025;-88
2022/03/13 10:04:07;;;;;;;10.95;6.63;;;;;;;12.94;25.84;101120.88;6315898;22;20045;-86
2022/03/13 10:07:15;;;;;;;11.35;6.07;;;;;;;14.54;23.20;101110.66;6344902;22;20472;-86
2022/03/13 10:09:46;;;;;;;9.07;6.93;;;;;;;15.27;22.78;101105.81;6345269;22;20014;-87
2022/03/13 10:12:29;;;;;;;10.98;6.43;;;;;;;15.71;22.14;101104.81;6320012;22;20494;-87
2022/03/13 10:15:13;;;;;;;9.70;7.20;;;;;;;16.78;22.15;101099.50;6295642;22;20030;-84
2022/03/13 10:17:44;;;;;;;11.50;7.10;;;;;;;17.98;20.86;101088.94;6374215;22;20018;-84
2022/03/13 10:20:28;;;;;;;9.57;7.05;;;;;;;18.32;19.55;101085.16;6320820;22;20083;-88
2022/03/13 10:23:02;;;;;;;8.13;6.40;;;;;;;18.60;19.98;101081.50;6317685;22;20714;-89
2022/03/13 10:25:39;;;;;;;6.97;6.28;;;;;;;19.14;18.66;101080.44;6376523;22;20022;-87
2022/03/13 10:28:32;;;;;;;7.78;6.30;;;;;;;19.57;19.25;101077.91;6360066;22;20022;-90
2022/03/13 10:31:02;;;;;;;9.05;6.72;;;;;;;20.03;19.33;101077.84;6364720;22;20461;-88
2022/03/13 10:33:48;;;;;;;8.57;6.57;;;;;;;20.53;17.56;101083.72;6385081;22;20429;-91
2022/03/13 10:36:24;;;;;;;10.98;6.28;;;;;;;20.92;17.76;101086.41;6357005;22;20017;-90
2022/03/13 10:38:51;;;;;;;8.00;7.30;;;;;;;21.22;17.97;101082.41;6354295;22;20026;-87
2022/03/13 10:41:24;;;;;;;9.13;7.13;;;;;;;21.56;17.63;101086.16;6346904;22;20057;-88
2022/03/13 10:43:51;;;;;;;9.43;6.40;;;;;;;21.98;16.85;101079.69;6292535;22;20026;-85
2022/03/13 10:46:34;;;;;;;6.82;6.13;;;;;;;22.04;16.55;101089.16;6344333;22;20022;-87
2022/03/13 10:49:08;;;;;;;7.40;6.68;;;;;;;21.53;16.42;101083.63;6344681;22;20022;-88
2022/03/13 10:51:47;;;;;;;8.50;6.93;;;;;;;20.91;16.67;101089.16;6325910;22;20054;-86
2022/03/13 10:54:34;;;;;;;7.03;6.30;;;;;;;20.95;17.15;101085.41;6354275;22;20018;-88
2022/03/13 10:57:11;;;;;;;7.43;6.65;;;;;;;21.40;16.33;101089.53;6348524;22;20010;-85
2022/03/13 10:59:47;;;;;;;7.35;6.65;;;;;;;21.85;16.83;101078.56;6322011;22;20433;-86
2022/03/13 11:02:29;;;;;;;7.10;6.35;;;;;;;22.77;16.39;101081.00;6348533;22;20022;-85
2022/03/13 11:04:57;;;;;;;7.25;6.50;;;;;;;23.41;15.89;101068.63;6320023;22;20071;-90
2022/03/13 11:07:33;;;;;;;8.18;6.97;;;;;;;23.41;15.73;101067.75;6342804;22;20233;-88
2022/03/13 11:10:00;;;;;;;7.05;6.45;;;;;;;22.91;15.21;101066.91;6346101;22;20014;-86
2022/03/13 11:12:28;;;;;;;7.00;5.97;;;;;;;22.67;15.61;101064.63;6343339;22;20383;-87
2022/03/13 11:15:00;;;;;;;8.13;7.15;;;;;;;22.20;15.65;101062.59;6342414;22;20024;-85
2022/03/13 11:17:34;;;;;;;10.10;7.60;;;;;;;22.43;15.72;101053.44;6343329;22;20046;-85
2022/03/13 11:20:05;;;;;;;8.77;6.40;;;;;;;22.41;15.79;101049.97;6372331;22;20029;-84
2022/03/13 11:22:31;;;;;;;7.45;6.78;;;;;;;22.67;15.60;101051.28;6366697;22;20054;-92
2022/03/13 11:25:08;;;;;;;8.60;6.95;;;;;;;23.11;15.29;101047.09;6365650;22;20024;-84
2022/03/13 11:27:43;;;;;;;7.97;7.18;;;;;;;22.92;15.54;101041.94;6323045;22;20014;-87
2022/03/13 11:30:37;;;;;;;7.17;6.47;;;;;;;23.11;15.07;101041.78;6325212;22;20038;-86
2022/03/13 11:33:08;;;;;;;;;;;;;;;23.61;14.77;101032.72;6344439;22;20638;-90
2022/03/13 11:35:34;;;;;;;8.77;6.25;;;;;;;24.48;14.02;101035.66;6318308;22;19963;-87
2022/03/13 11:38:08;;;;;;;9.68;6.90;;;;;;;24.91;14.09;101022.31;6344399;22;20018;-85
2022/03/13 11:40:40;;;;;;;7.40;6.63;;;;;;;24.67;14.05;101024.69;6344071;22;20014;-87
2022/03/13 11:46:11;;;;;;;8.25;6.82;;;;;;;24.11;13.93;101028.06;6337969;22;20040;-85
2022/03/13 11:48:39;;;;;;;7.38;6.03;;;;;;;24.56;14.25;101020.00;6303562;22;20021;-82
2022/03/13 11:51:09;;;;;;;9.80;6.50;;;;;;;25.13;13.87;101025.41;6291428;22;20044;-86
2022/03/13 11:53:38;;;;;;;7.90;6.47;;;;;;;25.45;13.62;101023.34;6312658;22;20035;-87
2022/03/13 11:58:57;;;;;;;6.32;5.40;;;;;;;26.57;12.85;101022.91;6343532;22;20015;-86